Time;durP1;ratioP1;P1;durP2;ratioP2;P2;SDS_P1;SDS_P2;PMS_P1;PMS_P2;Temp;Humidity;BMP_temperature;BMP_pressure;BME280_temperature;BME280_humidity;BME280_pressure;Samples;Min_cycle;Max_cycle;Signal;HPM_P1;HPM_P2
2021/09/28 00:01:05;;;;;;;7.43;1.70;;;;;;;21.77;49.40;99472.94;5052997;28;20029;-49
2021/09/28 00:03:30;;;;;;;3.65;1.73;;;;;;;21.62;49.86;99477.09;5054285;28;20036;-49
2021/09/28 00:05:56;;;;;;;10.32;3.78;;;;;;;21.41;50.05;99472.56;5054222;28;20028;-49
2021/09/28 00:08:21;;;;;;;8.57;3.20;;;;;;;21.50;50.78;99468.41;5052824;28;20059;-49
2021/09/28 00:10:47;;;;;;;7.95;2.20;;;;;;;21.65;50.26;99468.56;5054023;28;20096;-49
2021/09/28 00:13:13;;;;;;;8.43;2.40;;;;;;;21.69;50.10;99472.34;5052800;28;20119;-49
2021/09/28 00:15:38;;;;;;;4.60;1.40;;;;;;;21.56;49.91;99474.63;5053982;28;20398;-49
2021/09/28 00:18:04;;;;;;;6.57;1.60;;;;;;;21.34;50.19;99468.22;5052690;28;20111;-49
2021/09/28 00:20:32;;;;;;;9.48;1.00;;;;;;;21.07;50.83;99465.56;5052602;28;20067;-49
2021/09/28 00:22:58;;;;;;;10.15;1.80;;;;;;;20.85;51.50;99473.56;5053876;28;20499;-49
2021/09/28 00:25:24;;;;;;;3.88;1.52;;;;;;;20.79;51.76;99471.09;5053584;28;20127;-49
2021/09/28 00:27:49;;;;;;;5.60;1.15;;;;;;;20.76;52.00;99464.38;5052505;28;20457;-49
2021/09/28 00:30:16;;;;;;;7.32;2.13;;;;;;;20.68;52.10;99460.28;5053675;28;20104;-49
2021/09/28 00:32:41;;;;;;;7.95;2.83;;;;;;;20.52;52.25;99455.78;5052145;28;20041;-48
2021/09/28 00:35:07;;;;;;;8.55;2.65;;;;;;;20.53;52.52;99450.19;5053675;28;20495;-50
2021/09/28 00:37:33;;;;;;;8.25;2.10;;;;;;;20.68;52.22;99444.28;5052257;28;20052;-49
2021/09/28 00:39:59;;;;;;;5.50;2.67;;;;;;;20.82;51.87;99442.03;5052274;28;20059;-49
2021/09/28 00:42:24;;;;;;;8.52;2.92;;;;;;;20.90;51.69;99432.81;5053501;28;20032;-49
2021/09/28 00:44:50;;;;;;;8.18;3.47;;;;;;;20.85;51.59;99428.22;5053708;28;20059;-49
2021/09/28 00:47:17;;;;;;;13.95;4.97;;;;;;;20.82;51.99;99426.03;5053444;28;20088;-49
2021/09/28 00:49:45;;;;;;;8.93;3.65;;;;;;;20.86;51.82;99431.69;5053416;28;20100;-49
2021/09/28 00:52:13;;;;;;;7.32;1.90;;;;;;;20.54;51.74;99429.66;5053327;28;20514;-49
2021/09/28 00:54:40;;;;;;;8.75;2.78;;;;;;;20.05;53.29;99427.69;5052004;28;20021;-49
2021/09/28 00:57:07;;;;;;;10.45;4.43;;;;;;;20.11;53.69;99426.69;5051904;28;20541;-49
2021/09/28 00:59:38;;;;;;;8.65;3.30;;;;;;;20.24;53.58;99427.41;5053203;28;20067;-49
2021/09/28 01:02:08;;;;;;;10.18;2.28;;;;;;;20.16;53.54;99423.28;5053186;28;20116;-49
2021/09/28 01:04:34;;;;;;;6.15;1.20;;;;;;;19.99;53.59;99418.00;5051821;28;20036;-49
2021/09/28 01:07:01;;;;;;;9.65;2.40;;;;;;;20.01;54.13;99412.44;5051761;28;20120;-49
2021/09/28 01:09:27;;;;;;;6.20;1.17;;;;;;;19.81;53.78;99404.94;5053026;28;20091;-49
2021/09/28 01:11:53;;;;;;;8.55;3.33;;;;;;;19.34;54.76;99414.81;5052863;28;20033;-49
2021/09/28 01:14:19;;;;;;;3.45;1.08;;;;;;;18.99;56.03;99411.50;5052912;28;20446;-49
2021/09/28 01:16:45;;;;;;;7.82;1.63;;;;;;;18.80;56.88;99406.34;5052894;28;20107;-48
2021/09/28 01:19:11;;;;;;;8.65;2.75;;;;;;;18.87;57.15;99404.34;5051511;28;20025;-49
2021/09/28 01:21:38;;;;;;;18.10;8.75;;;;;;;18.73;57.04;99400.31;5052747;28;20056;-49
2021/09/28 01:24:06;;;;;;;4.28;1.27;;;;;;;18.50;57.60;99402.00;5052538;28;20146;-49
2021/09/28 01:26:33;;;;;;;10.18;3.78;;;;;;;18.34;59.15;99398.22;5052907;28;20398;-49
2021/09/28 01:29:00;;;;;;;3.80;1.92;;;;;;;18.54;58.68;99395.19;5051357;28;20448;-49
2021/09/28 01:31:26;;;;;;;12.48;4.88;;;;;;;18.88;58.34;99392.69;5052533;28;20036;-49
2021/09/28 01:33:52;;;;;;;9.07;5.80;;;;;;;19.10;57.37;99389.38;5052590;28;20056;-49
2021/09/28 01:36:19;;;;;;;11.63;3.10;;;;;;;19.11;57.14;99381.13;5052522;28;20075;-48
2021/09/28 01:38:45;;;;;;;7.40;3.28;;;;;;;19.33;56.96;99367.13;5052458;28;20514;-49
2021/09/28 01:41:12;;;;;;;5.38;1.27;;;;;;;19.55;56.21;99381.31;5052421;28;20021;-49
2021/09/28 01:43:38;;;;;;;10.98;4.38;;;;;;;19.61;55.96;99374.25;5051551;28;20024;-49
2021/09/28 01:46:05;;;;;;;9.57;3.42;;;;;;;19.63;55.81;99382.00;5052374;28;20495;-49
2021/09/28 01:48:39;;;;;;;8.63;3.53;;;;;;;19.68;55.65;99377.56;5052307;28;20025;-49
2021/09/28 01:51:05;;;;;;;7.20;3.10;;;;;;;19.70;55.53;99374.66;5050918;28;20514;-49
2021/09/28 01:53:31;;;;;;;12.25;4.55;;;;;;;19.76;55.67;99371.03;5052167;28;20564;-49
2021/09/28 01:55:57;;;;;;;8.73;2.50;;;;;;;19.83;55.34;99373.53;5050799;28;20017;-49
2021/09/28 01:58:22;;;;;;;4.70;1.70;;;;;;;19.77;55.06;99379.84;5052160;28;20025;-49
2021/09/28 02:00:48;;;;;;;12.20;3.05;;;;;;;19.63;55.47;99382.78;5052089;28;20025;-49
2021/09/28 02:03:14;;;;;;;8.25;4.30;;;;;;;19.52;55.64;99368.50;5052103;28;20033;-49
2021/09/28 02:05:39;;;;;;;6.20;3.22;;;;;;;19.58;55.68;99369.41;5050741;28;20024;-49
2021/09/28 02:08:06;;;;;;;7.70;2.35;;;;;;;19.65;55.73;99362.06;5050659;28;20025;-49
2021/09/28 02:10:32;;;;;;;11.40;1.95;;;;;;;19.65;55.33;99359.38;5051862;28;20394;-49
2021/09/28 02:12:58;;;;;;;13.25;3.55;;;;;;;19.54;55.67;99365.63;5051946;28;20535;-49
2021/09/28 02:15:23;;;;;;;8.85;3.10;;;;;;;19.49;56.01;99374.31;5051796;28;20495;-49
2021/09/28 02:17:49;;;;;;;4.13;1.83;;;;;;;19.25;55.87;99364.88;5051852;28;20021;-48
2021/09/28 02:20:15;;;;;;;4.88;1.45;;;;;;;18.92;56.65;99372.53;5050527;28;20025;-49
2021/09/28 02:22:40;;;;;;;12.20;5.18;;;;;;;18.72;57.12;99369.47;5051796;28;20025;-49
2021/09/28 02:25:09;;;;;;;10.23;2.83;;;;;;;18.59;57.76;99365.22;5051585;28;20442;-48
2021/09/28 02:27:36;;;;;;;11.20;4.35;;;;;;;18.64;58.11;99368.00;5051712;28;20056;-49
2021/09/28 02:30:03;;;;;;;10.13;2.45;;;;;;;18.66;57.98;99354.47;5051663;28;20028;-49
2021/09/28 02:32:29;;;;;;;13.38;2.67;;;;;;;18.74;58.16;99354.09;5051658;28;20025;-49
2021/09/28 02:34:55;;;;;;;11.23;4.30;;;;;;;18.89;58.00;99356.25;5051716;28;20374;-49
2021/09/28 02:37:21;;;;;;;7.45;4.38;;;;;;;19.00;57.74;99359.91;5050393;28;20028;-49
2021/09/28 02:39:46;;;;;;;3.83;2.25;;;;;;;19.13;57.34;99356.94;5051657;28;20112;-50
2021/09/28 02:42:12;;;;;;;9.63;3.60;;;;;;;19.16;57.11;99353.81;5050279;28;20451;-49
2021/09/28 02:44:38;;;;;;;8.20;1.40;;;;;;;18.96;57.30;99354.25;5051646;28;20507;-49
2021/09/28 02:47:04;;;;;;;3.72;1.38;;;;;;;18.71;57.77;99343.91;5051551;28;20491;-49
2021/09/28 02:49:30;;;;;;;10.52;3.60;;;;;;;18.45;58.39;99346.09;5051553;28;20033;-49
2021/09/28 02:51:56;;;;;;;4.63;1.33;;;;;;;18.29;59.00;99341.50;5050173;28;20436;-49
2021/09/28 02:54:22;;;;;;;5.35;1.85;;;;;;;18.13;59.20;99337.75;5050162;28;20028;-49
2021/09/28 02:56:48;;;;;;;7.93;2.45;;;;;;;17.95;59.96;99339.47;5055187;28;20419;-49
2021/09/28 02:59:13;;;;;;;18.73;11.95;;;;;;;17.90;59.93;99328.72;5054160;28;20033;-49
2021/09/28 03:01:39;;;;;;;4.50;1.75;;;;;;;17.88;60.29;99335.31;5054095;28;20083;-49
2021/09/28 03:04:05;;;;;;;12.32;3.05;;;;;;;17.80;60.31;99338.31;5054128;28;20322;-49
2021/09/28 03:06:31;;;;;;;6.28;2.53;;;;;;;17.67;60.70;99328.72;5055317;28;20021;-49
2021/09/28 03:08:57;;;;;;;13.40;5.32;;;;;;;17.50;61.53;99329.41;5054000;28;20075;-49
2021/09/28 03:11:26;;;;;;;6.00;2.13;;;;;;;17.48;61.35;99325.38;5053912;28;20029;-49
2021/09/28 03:13:53;;;;;;;12.10;2.40;;;;;;;17.44;61.70;99319.69;5055250;28;20064;-49
2021/09/28 03:16:19;;;;;;;14.75;13.00;;;;;;;17.57;61.85;99318.69;5055156;28;20013;-49
2021/09/28 03:18:45;;;;;;;10.00;7.10;;;;;;;17.62;61.49;99315.34;5053819;28;20115;-49
2021/09/28 03:21:11;;;;;;;8.85;2.55;;;;;;;17.55;61.37;99316.25;5053718;28;20120;-49
2021/09/28 03:23:37;;;;;;;8.63;1.30;;;;;;;17.47;61.50;99305.19;5036943;28;20049;-49
2021/09/28 03:26:03;;;;;;;12.40;2.75;;;;;;;17.25;62.19;99310.22;5053709;28;20028;-49
2021/09/28 03:28:29;;;;;;;5.22;1.40;;;;;;;17.16;62.93;99313.22;5054906;28;20032;-50
2021/09/28 03:30:54;;;;;;;7.03;1.95;;;;;;;17.07;62.88;99308.47;5053531;28;20487;-49
2021/09/28 03:33:20;;;;;;;16.30;5.15;;;;;;;16.99;63.30;99314.09;5054877;28;20032;-49
2021/09/28 03:35:46;;;;;;;3.88;2.10;;;;;;;16.92;63.30;99315.00;5053488;28;20553;-49
2021/09/28 03:38:11;;;;;;;8.30;2.38;;;;;;;16.86;63.58;99310.59;5054803;28;20041;-51
2021/09/28 03:40:39;;;;;;;8.60;2.60;;;;;;;16.84;63.93;99307.38;5054723;28;20047;-51
2021/09/28 03:43:06;;;;;;;9.63;2.53;;;;;;;16.81;63.80;99305.16;5054585;28;20028;-51
2021/09/28 03:45:34;;;;;;;10.25;1.27;;;;;;;16.82;64.28;99306.78;5054675;28;20367;-51
2021/09/28 03:48:03;;;;;;;7.00;2.05;;;;;;;16.84;63.87;99296.78;5053307;28;20151;-51
2021/09/28 03:50:33;;;;;;;9.98;3.95;;;;;;;16.83;64.05;99302.28;5054470;28;20017;-51
2021/09/28 03:52:59;;;;;;;10.02;3.17;;;;;;;16.85;64.11;99303.69;5053341;28;20053;-51
2021/09/28 03:55:24;;;;;;;6.90;3.10;;;;;;;16.93;63.88;99299.91;5054387;28;20059;-51
2021/09/28 03:57:52;;;;;;;4.40;1.60;;;;;;;16.92;63.81;99301.75;5054363;28;20033;-51
2021/09/28 04:00:20;;;;;;;4.63;1.50;;;;;;;16.84;63.53;99302.06;5036547;28;20029;-51
2021/09/28 04:02:47;;;;;;;8.40;2.10;;;;;;;16.72;64.03;99307.31;5054336;28;20578;-51
2021/09/28 04:05:13;;;;;;;14.98;7.68;;;;;;;16.68;64.38;99305.31;5054261;28;20049;-51
2021/09/28 04:07:39;;;;;;;7.80;1.88;;;;;;;16.63;64.46;99305.97;5052033;28;20048;-51
2021/09/28 04:10:07;;;;;;;2.53;1.98;;;;;;;16.61;64.45;99313.34;5054098;28;20048;-51
2021/09/28 04:12:33;;;;;;;5.95;2.65;;;;;;;16.51;64.58;99300.63;5052862;28;20021;-51
2021/09/28 04:15:00;;;;;;;13.15;2.17;;;;;;;16.44;64.87;99302.56;5054121;28;20487;-51
2021/09/28 04:17:26;;;;;;;5.75;2.67;;;;;;;16.44;64.77;99299.09;5054021;28;20529;-51
2021/09/28 04:19:52;;;;;;;8.02;1.40;;;;;;;16.42;64.90;99302.00;5054030;28;20029;-51
2021/09/28 04:22:18;;;;;;;13.90;5.03;;;;;;;16.43;65.02;99300.13;5053945;28;20552;-51
2021/09/28 04:24:44;;;;;;;9.15;2.78;;;;;;;16.45;65.16;99304.19;5053614;28;20045;-51
2021/09/28 04:27:10;;;;;;;5.78;2.42;;;;;;;16.42;64.97;99298.50;5053811;28;20037;-51
2021/09/28 04:29:37;;;;;;;3.95;1.80;;;;;;;16.35;65.02;99303.91;5053817;28;20021;-51
2021/09/28 04:32:03;;;;;;;6.45;1.27;;;;;;;16.27;65.00;99304.19;5052349;28;20025;-51
2021/09/28 04:34:28;;;;;;;6.78;4.35;;;;;;;16.19;65.57;99297.34;5052424;28;20028;-51
2021/09/28 04:36:54;;;;;;;9.57;2.60;;;;;;;16.23;65.38;99297.72;5052375;28;20442;-51
2021/09/28 04:39:20;;;;;;;8.45;1.90;;;;;;;16.23;65.42;99297.72;5052335;28;20515;-51
2021/09/28 04:41:45;;;;;;;3.55;1.60;;;;;;;16.21;65.46;99295.28;5052290;28;20438;-51
2021/09/28 04:44:11;;;;;;;12.60;6.28;;;;;;;16.21;65.43;99292.66;5052277;28;20032;-51
2021/09/28 04:46:37;;;;;;;20.33;10.40;;;;;;;16.15;65.28;99296.19;5053651;28;20399;-51
2021/09/28 04:49:03;;;;;;;6.03;2.80;;;;;;;16.09;65.48;99297.88;5053465;28;20101;-51
2021/09/28 04:51:29;;;;;;;8.10;4.13;;;;;;;16.13;65.71;99299.03;5052016;28;20028;-51
2021/09/28 04:53:54;;;;;;;6.03;1.80;;;;;;;16.16;65.69;99301.28;5051995;28;20398;-51
2021/09/28 04:56:20;;;;;;;14.27;2.78;;;;;;;16.18;65.46;99293.09;5053241;28;20063;-51
2021/09/28 04:58:47;;;;;;;26.02;6.07;;;;;;;16.22;65.62;99296.09;5052275;28;20437;-51
2021/09/28 05:01:14;;;;;;;42.80;27.15;;;;;;;16.31;65.29;99298.22;5053181;28;20032;-51
2021/09/28 05:03:40;;;;;;;193.82;175.27;;;;;;;16.28;65.25;99295.22;5053169;28;20059;-51
2021/09/28 05:06:06;;;;;;;114.93;90.70;;;;;;;16.31;65.26;99297.44;5051744;28;20087;-51
2021/09/28 05:08:32;;;;;;;43.38;34.17;;;;;;;16.35;65.10;99294.09;5053080;28;20021;-51
2021/09/28 05:10:59;;;;;;;15.48;6.70;;;;;;;16.37;64.60;99292.03;5052964;28;20021;-51
2021/09/28 05:13:25;;;;;;;24.85;15.73;;;;;;;16.32;64.74;99286.63;5051728;28;20028;-51
2021/09/28 05:15:50;;;;;;;20.27;4.03;;;;;;;16.33;65.01;99280.28;5051587;28;20449;-51
2021/09/28 05:18:16;;;;;;;7.03;1.73;;;;;;;16.50;64.46;99269.88;5052804;28;20021;-51
2021/09/28 05:20:45;;;;;;;31.65;4.57;;;;;;;16.58;64.45;99268.75;5051496;28;20083;-51
2021/09/28 05:23:11;;;;;;;11.00;3.47;;;;;;;16.76;63.85;99274.00;5051251;28;20513;-52
2021/09/28 05:25:36;;;;;;;16.83;5.90;;;;;;;16.76;63.63;99267.88;5052727;28;20029;-51
2021/09/28 05:28:02;;;;;;;17.75;4.28;;;;;;;16.90;63.91;99277.31;5052689;28;20108;-50
2021/09/28 05:30:28;;;;;;;14.98;3.15;;;;;;;17.14;63.11;99272.03;5051285;28;20116;-51
2021/09/28 05:32:53;;;;;;;10.02;3.28;;;;;;;17.16;62.34;99275.25;5052555;28;20033;-51
2021/09/28 05:35:20;;;;;;;7.15;2.17;;;;;;;17.03;62.48;99278.13;5052554;28;20457;-51
2021/09/28 05:37:46;;;;;;;9.73;2.20;;;;;;;16.96;62.33;99270.25;5052538;28;20025;-51
2021/09/28 05:40:12;;;;;;;14.45;2.47;;;;;;;16.82;62.47;99268.84;5051090;28;20032;-51
2021/09/28 05:42:37;;;;;;;412.52;302.10;;;;;;;16.71;62.48;99263.25;5051087;28;20037;-51
2021/09/28 05:45:06;;;;;;;104.40;93.18;;;;;;;16.64;62.78;99267.03;5052324;28;20025;-51
2021/09/28 05:47:31;;;;;;;217.75;196.63;;;;;;;16.68;62.64;99260.25;5052672;28;20094;-51
2021/09/28 05:49:57;;;;;;;133.50;88.55;;;;;;;16.77;62.45;99267.66;5050951;28;20483;-51
2021/09/28 05:52:23;;;;;;;90.15;79.43;;;;;;;16.85;62.03;99261.25;5050839;28;20056;-51
2021/09/28 05:54:49;;;;;;;15.60;11.20;;;;;;;16.92;61.70;99259.31;5052522;28;20029;-51
2021/09/28 05:57:21;;;;;;;13.13;6.88;;;;;;;17.03;61.43;99264.88;5050792;28;20497;-51
2021/09/28 05:59:48;;;;;;;9.77;4.47;;;;;;;17.13;61.00;99260.63;5052187;28;20395;-51
2021/09/28 06:02:15;;;;;;;11.30;4.82;;;;;;;17.25;60.63;99255.31;5052045;28;20029;-51
2021/09/28 06:04:41;;;;;;;12.65;2.20;;;;;;;17.37;60.03;99261.44;5052108;28;20017;-51
2021/09/28 06:07:08;;;;;;;10.38;2.60;;;;;;;17.53;59.58;99259.94;5050695;28;20025;-51
2021/09/28 06:09:36;;;;;;;11.55;2.90;;;;;;;17.71;59.28;99272.28;5051952;28;20526;-49
2021/09/28 06:12:06;;;;;;;12.27;1.80;;;;;;;17.94;58.47;99268.81;5051823;28;20040;-49
2021/09/28 06:14:32;;;;;;;12.40;4.53;;;;;;;18.52;57.44;99261.69;5051955;28;20033;-49
2021/09/28 06:17:00;;;;;;;6.97;3.83;;;;;;;19.08;55.54;99267.22;5051856;28;20442;-49
2021/09/28 06:19:29;;;;;;;11.55;1.92;;;;;;;19.29;54.57;99272.84;5051858;28;20024;-50
2021/09/28 06:21:56;;;;;;;5.97;2.22;;;;;;;19.15;54.66;99267.84;5051748;28;20530;-49
2021/09/28 06:24:23;;;;;;;8.50;2.00;;;;;;;19.15;54.32;99267.84;5051621;28;20047;-49
2021/09/28 06:26:49;;;;;;;7.88;2.20;;;;;;;19.02;54.37;99262.06;5052048;28;20029;-49
2021/09/28 06:29:16;;;;;;;7.95;2.50;;;;;;;18.82;54.49;99260.66;5051557;28;20021;-49
2021/09/28 06:31:42;;;;;;;9.75;2.47;;;;;;;18.68;54.84;99264.63;5051360;28;20029;-49
2021/09/28 06:34:10;;;;;;;10.55;3.55;;;;;;;18.56;55.24;99264.69;5050413;28;20025;-50
2021/09/28 06:36:37;;;;;;;17.73;7.57;;;;;;;18.42;55.36;99258.84;5051611;28;20112;-49
2021/09/28 06:39:03;;;;;;;12.68;2.88;;;;;;;18.40;55.53;99260.16;5051673;28;20017;-49
2021/09/28 06:41:30;;;;;;;21.33;4.53;;;;;;;18.45;55.38;99258.41;5051595;28;20040;-50
2021/09/28 06:43:56;;;;;;;28.25;4.28;;;;;;;18.51;55.32;99252.13;5051621;28;20061;-49
2021/09/28 06:46:22;;;;;;;24.67;7.65;;;;;;;18.67;54.99;99257.69;5050305;28;20025;-49
2021/09/28 06:48:48;;;;;;;10.75;3.15;;;;;;;18.77;54.85;99263.19;5050218;28;20394;-49
2021/09/28 06:51:14;;;;;;;9.15;1.70;;;;;;;18.92;54.26;99258.16;5051424;28;20021;-49
2021/09/28 06:53:41;;;;;;;9.65;1.95;;;;;;;18.96;53.94;99248.66;5050192;28;20628;-49
2021/09/28 06:56:07;;;;;;;11.43;2.50;;;;;;;19.13;53.73;99248.66;5051448;28;20021;-49
2021/09/28 06:58:39;;;;;;;12.02;2.17;;;;;;;19.33;52.87;99250.81;5050180;28;20028;-50
2021/09/28 07:01:05;;;;;;;10.75;1.92;;;;;;;19.52;52.73;99242.59;5051411;28;20021;-50
2021/09/28 07:03:33;;;;;;;13.48;3.10;;;;;;;19.50;52.49;99244.69;5050181;28;20083;-49
2021/09/28 07:05:59;;;;;;;8.63;2.00;;;;;;;19.30;52.86;99238.00;5051373;28;20503;-49
2021/09/28 07:08:25;;;;;;;18.60;2.78;;;;;;;19.13;52.96;99234.56;5051378;28;20123;-49
2021/09/28 07:10:50;;;;;;;8.55;2.00;;;;;;;18.84;53.57;99237.28;5051280;28;20447;-49
2021/09/28 07:13:16;;;;;;;10.25;5.53;;;;;;;18.49;54.73;99238.25;5050059;28;20509;-49
2021/09/28 07:15:42;;;;;;;9.23;2.50;;;;;;;18.73;54.65;99240.78;5051318;28;20025;-49
2021/09/28 07:18:14;;;;;;;9.30;1.83;;;;;;;19.14;53.01;99246.81;5050004;28;20033;-49
2021/09/28 07:20:40;;;;;;;15.30;2.42;;;;;;;19.45;53.04;99241.94;5051247;28;20025;-49
2021/09/28 07:23:09;;;;;;;16.15;4.82;;;;;;;19.93;51.53;99243.94;5051270;28;20048;-49
2021/09/28 07:25:35;;;;;;;7.95;2.03;;;;;;;20.02;51.09;99249.66;5051052;28;20129;-49
2021/09/28 07:28:02;;;;;;;7.53;1.70;;;;;;;19.97;51.17;99244.25;5051187;28;20075;-48
2021/09/28 07:30:30;;;;;;;10.13;1.60;;;;;;;19.93;50.56;99241.28;5051151;28;20075;-49
2021/09/28 07:32:56;;;;;;;13.85;1.67;;;;;;;19.81;50.91;99245.91;5051172;28;20074;-49
2021/09/28 07:35:22;;;;;;;10.85;2.50;;;;;;;19.90;51.24;99248.94;5049872;28;20024;-49
2021/09/28 07:37:48;;;;;;;10.38;2.20;;;;;;;19.94;50.37;99256.22;5051127;28;20030;-49
2021/09/28 07:40:16;;;;;;;7.65;2.13;;;;;;;20.03;50.51;99253.13;5049724;28;20060;-49
2021/09/28 07:42:42;;;;;;;7.05;2.10;;;;;;;20.06;50.33;99258.75;5051507;28;20025;-49
2021/09/28 07:45:11;;;;;;;13.70;2.10;;;;;;;20.07;50.47;99263.03;5053313;28;20025;-48
2021/09/28 07:47:37;;;;;;;21.27;4.72;;;;;;;20.63;49.39;99251.41;5053350;28;20025;-49
2021/09/28 07:50:04;;;;;;;7.72;2.38;;;;;;;21.04;48.39;99252.53;5054515;28;20033;-49
2021/09/28 07:52:29;;;;;;;7.05;2.25;;;;;;;21.69;46.85;99247.94;5054449;28;20025;-50
2021/09/28 07:54:55;;;;;;;256.67;65.80;;;;;;;22.25;45.86;99247.38;5053144;28;20395;-49
2021/09/28 07:57:21;;;;;;;37.08;6.25;;;;;;;22.69;44.68;99254.94;5054396;28;20032;-49
2021/09/28 07:59:47;;;;;;;20.67;4.25;;;;;;;22.74;44.83;99262.19;5053078;28;20116;-49
2021/09/28 08:02:19;;;;;;;10.82;1.67;;;;;;;23.10;43.81;99251.50;5054367;28;20087;-49
2021/09/28 08:04:45;;;;;;;14.82;2.60;;;;;;;23.71;42.41;99259.44;5054242;28;20033;-49
2021/09/28 08:07:13;;;;;;;6.22;1.67;;;;;;;23.99;41.31;99254.53;5054275;28;20021;-49
2021/09/28 08:09:42;;;;;;;7.07;1.63;;;;;;;23.78;41.03;99258.38;5054174;28;20025;-49
2021/09/28 08:12:10;;;;;;;15.25;3.40;;;;;;;23.61;42.09;99256.00;5052888;28;20032;-49
2021/09/28 08:14:39;;;;;;;17.17;3.78;;;;;;;24.12;41.53;99258.50;5054103;28;20390;-49
2021/09/28 08:17:05;;;;;;;9.60;2.28;;;;;;;24.25;40.92;99257.13;5054019;28;20017;-50
2021/09/28 08:19:32;;;;;;;9.07;1.73;;;;;;;23.93;41.34;99261.00;5054390;28;20135;-49
2021/09/28 08:22:00;;;;;;;10.73;1.88;;;;;;;23.86;41.74;99260.47;5053975;28;20025;-49
2021/09/28 08:24:29;;;;;;;14.05;2.58;;;;;;;24.20;41.81;99257.13;5053761;28;20387;-49
2021/09/28 08:29:39;;;;;;;10.82;1.92;;;;;;;26.22;37.59;99231.66;5054229;28;20036;-49
2021/09/28 08:32:05;;;;;;;12.77;2.47;;;;;;;27.54;35.86;99227.94;5052402;28;20029;-50
2021/09/28 08:34:31;;;;;;;8.50;1.52;;;;;;;28.21;34.76;99229.28;5053760;28;20073;-50
2021/09/28 08:36:57;;;;;;;15.25;3.13;;;;;;;28.07;34.50;99219.34;5053707;28;20017;-50
2021/09/28 08:39:23;;;;;;;13.40;2.05;;;;;;;27.73;34.12;99227.03;5053766;28;20028;-49
2021/09/28 08:41:51;;;;;;;12.98;1.60;;;;;;;27.20;34.58;99223.69;5053625;28;20021;-49
2021/09/28 08:44:17;;;;;;;14.05;2.05;;;;;;;26.18;36.33;99215.34;5053614;28;20372;-49
2021/09/28 08:46:48;;;;;;;9.32;2.20;;;;;;;25.64;36.82;99220.00;5053520;28;20024;-52
2021/09/28 08:49:16;;;;;;;6.97;1.58;;;;;;;25.70;37.04;99226.94;5053481;28;20522;-49
2021/09/28 08:51:43;;;;;;;6.18;1.55;;;;;;;26.19;36.64;99219.59;5053290;28;20049;-49
2021/09/28 08:54:09;;;;;;;9.15;3.00;;;;;;;26.86;36.09;99219.44;5053027;28;20021;-49
2021/09/28 08:56:35;;;;;;;5.93;2.25;;;;;;;27.59;34.66;99214.38;5053366;28;20031;-49
2021/09/28 08:59:03;;;;;;;6.00;1.50;;;;;;;28.12;33.44;99210.31;5053341;28;20029;-50
2021/09/28 09:01:30;;;;;;;10.88;1.40;;;;;;;27.91;32.96;99209.97;5053197;28;20040;-50
2021/09/28 09:04:13;;;;;;;11.65;2.13;;;;;;;27.27;34.74;99209.88;5053197;28;20071;-50
2021/09/28 09:06:38;;;;;;;10.45;1.77;;;;;;;26.82;34.63;99213.03;5053190;28;20104;-49
2021/09/28 09:09:04;;;;;;;8.82;1.25;;;;;;;26.55;34.62;99219.09;5051830;28;20027;-49
2021/09/28 09:11:36;;;;;;;7.55;2.38;;;;;;;25.89;35.89;99220.78;5051628;28;20094;-49
2021/09/28 09:14:21;;;;;;;15.38;2.05;;;;;;;25.44;36.65;99223.72;5051737;28;20036;-49
2021/09/28 09:16:50;;;;;;;4.50;1.10;;;;;;;25.38;37.05;99226.75;5053212;28;20100;-49
2021/09/28 09:19:26;;;;;;;10.00;1.70;;;;;;;25.50;36.90;99227.97;5052890;28;20067;-49
2021/09/28 09:22:00;;;;;;;9.13;1.88;;;;;;;25.38;36.97;99210.63;5052836;28;20029;-49
2021/09/28 09:24:46;;;;;;;24.27;1.90;;;;;;;25.60;36.41;99208.22;5052629;28;20432;-49
2021/09/28 09:27:15;;;;;;;7.30;1.27;;;;;;;26.01;35.97;99215.81;5052778;28;20513;-49
2021/09/28 09:29:45;;;;;;;6.22;1.45;;;;;;;26.62;35.23;99207.97;5051432;28;20055;-49
2021/09/28 09:32:11;;;;;;;6.97;1.40;;;;;;;27.29;34.42;99208.47;5051241;28;20128;-49
2021/09/28 09:34:37;;;;;;;8.00;1.58;;;;;;;27.56;33.63;99214.16;5052637;28;20053;-50
2021/09/28 09:37:10;;;;;;;6.72;1.20;;;;;;;27.65;33.64;99207.78;5051225;28;20279;-49
2021/09/28 09:39:51;;;;;;;6.07;1.13;;;;;;;27.87;32.51;99204.38;5052535;28;20104;-49
2021/09/28 09:42:17;;;;;;;5.70;1.20;;;;;;;27.73;33.12;99206.28;5051195;28;20029;-49
2021/09/28 09:44:43;;;;;;;6.68;1.50;;;;;;;27.48;33.05;99202.16;5052511;28;20028;-50
2021/09/28 09:47:33;;;;;;;15.02;1.50;;;;;;;27.06;34.20;99201.31;5052418;28;20052;-49
2021/09/28 09:50:18;;;;;;;11.63;4.82;;;;;;;27.01;34.19;99190.63;5052390;28;20052;-49
2021/09/28 09:52:56;;;;;;;12.23;1.40;;;;;;;28.28;32.29;99192.69;5052626;28;20375;-49
2021/09/28 09:55:30;;;;;;;6.90;1.27;;;;;;;28.90;30.71;99182.31;5052437;28;20032;-49
2021/09/28 09:57:56;;;;;;;3.67;1.00;;;;;;;28.70;31.03;99179.03;5052197;28;20043;-49
2021/09/28 10:00:23;;;;;;;14.80;2.90;;;;;;;28.32;31.53;99176.66;5052154;28;20037;-49
2021/09/28 10:02:48;;;;;;;17.23;1.80;;;;;;;28.00;32.75;99178.47;5052116;28;20025;-49
2021/09/28 10:05:15;;;;;;;7.15;1.60;;;;;;;27.55;32.45;99178.31;5050187;28;20024;-49
2021/09/28 10:07:43;;;;;;;5.05;1.20;;;;;;;27.58;32.58;99175.00;5052028;28;20028;-49
2021/09/28 10:10:15;;;;;;;10.52;1.40;;;;;;;27.53;32.43;99175.13;5050660;28;20530;-49
2021/09/28 10:12:41;;;;;;;7.53;1.20;;;;;;;27.17;32.73;99175.00;5052073;28;20048;-48
2021/09/28 10:15:10;;;;;;;8.63;1.58;;;;;;;26.89;33.41;99173.03;5050549;28;20506;-49
2021/09/28 10:17:40;;;;;;;9.20;1.42;;;;;;;26.36;34.06;99173.38;5051872;28;20025;-49
2021/09/28 10:20:24;;;;;;;4.88;1.30;;;;;;;26.26;34.38;99168.13;5051826;28;20430;-49
2021/09/28 10:22:58;;;;;;;7.97;1.60;;;;;;;26.21;35.15;99162.81;5051923;28;20107;-49
2021/09/28 10:25:31;;;;;;;10.25;2.53;;;;;;;26.03;34.85;99159.03;5051584;28;20124;-50
2021/09/28 10:28:17;;;;;;;6.70;1.10;;;;;;;25.87;35.16;99161.09;5051840;28;20025;-49
2021/09/28 10:30:44;;;;;;;8.07;1.30;;;;;;;25.83;35.37;99160.09;5051544;28;20534;-49
2021/09/28 10:33:31;;;;;;;6.90;1.17;;;;;;;26.16;34.94;99147.56;5051727;28;20020;-49
2021/09/28 10:36:13;;;;;;;5.70;1.55;;;;;;;26.44;34.13;99151.16;5051690;28;20029;-49
2021/09/28 10:38:58;;;;;;;8.55;1.25;;;;;;;26.71;33.78;99152.38;5051722;28;20037;-49
2021/09/28 10:41:44;;;;;;;8.85;1.45;;;;;;;26.58;34.31;99147.72;5050364;28;20082;-49
2021/09/28 10:44:26;;;;;;;5.57;1.30;;;;;;;26.36;33.99;99145.63;5051651;28;20111;-49
2021/09/28 10:46:56;;;;;;;3.63;1.33;;;;;;;27.00;33.55;99148.63;5050270;28;20021;-49
2021/09/28 10:49:42;;;;;;;4.72;1.17;;;;;;;27.98;32.34;99140.19;5051946;28;20028;-49
2021/09/28 10:52:19;;;;;;;9.07;2.05;;;;;;;28.98;30.89;99132.94;5051433;28;20063;-49
2021/09/28 10:55:07;;;;;;;8.30;1.48;;;;;;;30.53;28.35;99127.28;5051491;28;20033;-49
2021/09/28 10:57:54;;;;;;;7.13;1.08;;;;;;;31.52;26.56;99134.41;5051475;28;20027;-49
2021/09/28 11:00:22;;;;;;;6.78;1.15;;;;;;;31.33;26.55;99135.63;5051420;28;20033;-49
2021/09/28 11:02:52;;;;;;;7.43;1.20;;;;;;;30.66;26.97;99129.78;5050172;28;20032;-49
2021/09/28 11:05:38;;;;;;;6.35;1.15;;;;;;;30.06;27.85;99122.53;5051425;28;20025;-49
2021/09/28 11:08:06;;;;;;;2.42;0.90;;;;;;;30.06;28.21;99123.34;5051661;28;20124;-49
2021/09/28 11:10:33;;;;;;;12.63;2.40;;;;;;;30.45;27.79;99126.19;5051286;28;20028;-49
2021/09/28 11:13:04;;;;;;;7.97;1.20;;;;;;;30.53;27.59;99132.72;5051343;28;20025;-49
2021/09/28 11:15:30;;;;;;;7.25;1.75;;;;;;;30.68;27.30;99118.63;5051398;28;20029;-49
2021/09/28 11:18:05;;;;;;;9.02;1.35;;;;;;;29.99;28.21;99128.41;5053807;28;20063;-49
2021/09/28 11:20:31;;;;;;;6.00;1.60;;;;;;;29.74;28.38;99129.19;5055275;28;20033;-49
2021/09/28 11:23:07;;;;;;;6.45;1.20;;;;;;;30.12;28.20;99120.44;5055067;28;20426;-49
2021/09/28 11:25:37;;;;;;;4.50;1.20;;;;;;;30.27;28.02;99122.69;5054930;28;20073;-49
2021/09/28 11:28:06;;;;;;;10.93;1.15;;;;;;;30.04;28.57;99125.56;5053654;28;20394;-49
2021/09/28 11:30:35;;;;;;;9.27;1.65;;;;;;;30.13;28.38;99130.19;5054909;28;20070;-50
2021/09/28 11:33:02;;;;;;;6.57;1.10;;;;;;;30.03;28.16;99120.47;5054961;28;20017;-49
2021/09/28 11:35:29;;;;;;;6.88;1.08;;;;;;;29.90;28.21;99110.59;5054930;28;20100;-49